sensor_id;sensor_type;location;lat;lon;timestamp;temperature;humidity
16388;DHT22;8303;53.446;9.988;2022-11-24T05:47:23;5.00;99.90
16388;DHT22;8303;53.446;9.988;2022-11-24T05:49:51;5.00;99.90
16388;DHT22;8303;53.446;9.988;2022-11-24T05:52:18;5.00;99.90
16388;DHT22;8303;53.446;9.988;2022-11-24T05:54:45;5.10;99.90
16388;DHT22;8303;53.446;9.988;2022-11-24T05:57:12;5.10;99.90
16388;DHT22;8303;53.446;9.988;2022-11-24T05:59:39;5.20;99.90
16388;DHT22;8303;53.446;9.988;2022-11-24T06:02:06;5.10;99.90
16388;DHT22;8303;53.446;9.988;2022-11-24T06:04:36;5.10;99.90
16388;DHT22;8303;53.446;9.988;2022-11-24T06:07:05;5.00;99.90
16388;DHT22;8303;53.446;9.988;2022-11-24T06:09:34;5.00;99.90
16388;DHT22;8303;53.446;9.988;2022-11-24T06:12:02;5.00;99.90
16388;DHT22;8303;53.446;9.988;2022-11-24T06:14:29;5.10;99.90
16388;DHT22;8303;53.446;9.988;2022-11-24T06:16:56;4.90;99.90
16388;DHT22;8303;53.446;9.988;2022-11-24T06:19:23;4.80;99.90
16388;DHT22;8303;53.446;9.988;2022-11-24T06:21:51;4.70;99.90
16388;DHT22;8303;53.446;9.988;2022-11-24T06:24:18;4.80;99.90
16388;DHT22;8303;53.446;9.988;2022-11-24T06:26:45;4.60;99.90
16388;DHT22;8303;53.446;9.988;2022-11-24T06:29:12;4.50;99.90
16388;DHT22;8303;53.446;9.988;2022-11-24T06:31:39;4.40;99.90
16388;DHT22;8303;53.446;9.988;2022-11-24T06:34:07;4.40;99.90
16388;DHT22;8303;53.446;9.988;2022-11-24T06:36:36;4.40;99.90
16388;DHT22;8303;53.446;9.988;2022-11-24T06:39:05;4.40;99.90
16388;DHT22;8303;53.446;9.988;2022-11-24T06:41:32;4.30;99.90
16388;DHT22;8303;53.446;9.988;2022-11-24T06:44:01;4.30;99.90
16388;DHT22;8303;53.446;9.988;2022-11-24T06:46:28;4.20;99.90
16388;DHT22;8303;53.446;9.988;2022-11-24T06:48:56;4.20;99.90
16388;DHT22;8303;53.446;9.988;2022-11-24T06:51:24;4.20;99.90
16388;DHT22;8303;53.446;9.988;2022-11-24T06:53:52;4.10;99.90
16388;DHT22;8303;53.446;9.988;2022-11-24T06:56:21;4.10;99.90
16388;DHT22;8303;53.446;9.988;2022-11-24T06:58:49;4.10;99.90
16388;DHT22;8303;53.446;9.988;2022-11-24T07:01:18;4.10;99.90
16388;DHT22;8303;53.446;9.988;2022-11-24T07:03:46;4.10;99.90
16388;DHT22;8303;53.446;9.988;2022-11-24T07:06:14;4.20;99.90
16388;DHT22;8303;53.446;9.988;2022-11-24T07:08:41;4.20;99.90
16388;DHT22;8303;53.446;9.988;2022-11-24T07:11:10;4.30;99.90
16388;DHT22;8303;53.446;9.988;2022-11-24T07:13:41;4.30;99.90
16388;DHT22;8303;53.446;9.988;2022-11-24T07:16:16;4.30;1.00
16388;DHT22;8303;53.446;9.988;2022-11-24T07:18:45;4.30;1.00
16388;DHT22;8303;53.446;9.988;2022-11-24T07:21:13;4.30;1.00
16388;DHT22;8303;53.446;9.988;2022-11-24T07:23:40;4.30;1.00
16388;DHT22;8303;53.446;9.988;2022-11-24T07:26:09;4.40;1.00
16388;DHT22;8303;53.446;9.988;2022-11-24T07:28:36;4.40;1.00
16388;DHT22;8303;53.446;9.988;2022-11-24T07:31:17;4.50;1.00
16388;DHT22;8303;53.446;9.988;2022-11-24T07:33:51;4.40;1.00
16388;DHT22;8303;53.446;9.988;2022-11-24T07:36:18;4.40;1.00
16388;DHT22;8303;53.446;9.988;2022-11-24T07:38:45;4.50;1.00
16388;DHT22;8303;53.446;9.988;2022-11-24T07:41:14;4.50;1.00
16388;DHT22;8303;53.446;9.988;2022-11-24T07:43:41;4.60;1.00
16388;DHT22;8303;53.446;9.988;2022-11-24T07:46:12;4.70;1.00
16388;DHT22;8303;53.446;9.988;2022-11-24T07:48:39;4.80;1.00
16388;DHT22;8303;53.446;9.988;2022-11-24T07:51:07;4.90;1.00
16388;DHT22;8303;53.446;9.988;2022-11-24T07:53:34;4.90;1.00
16388;DHT22;8303;53.446;9.988;2022-11-24T07:56:02;5.00;1.00
16388;DHT22;8303;53.446;9.988;2022-11-24T07:58:32;5.10;1.00
16388;DHT22;8303;53.446;9.988;2022-11-24T08:01:01;5.20;1.00
16388;DHT22;8303;53.446;9.988;2022-11-24T08:03:36;5.20;1.00
16388;DHT22;8303;53.446;9.988;2022-11-24T08:06:05;5.20;1.00
16388;DHT22;8303;53.446;9.988;2022-11-24T08:08:32;5.20;1.00
16388;DHT22;8303;53.446;9.988;2022-11-24T08:11:04;5.20;1.00
16388;DHT22;8303;53.446;9.988;2022-11-24T08:13:32;5.20;1.00
16388;DHT22;8303;53.446;9.988;2022-11-24T08:16:03;5.20;99.90
16388;DHT22;8303;53.446;9.988;2022-11-24T08:18:30;5.30;1.00
16388;DHT22;8303;53.446;9.988;2022-11-24T08:20:58;5.40;1.00
16388;DHT22;8303;53.446;9.988;2022-11-24T08:23:26;5.50;1.00
16388;DHT22;8303;53.446;9.988;2022-11-24T08:25:57;5.50;1.00
16388;DHT22;8303;53.446;9.988;2022-11-24T08:28:29;5.60;1.00
16388;DHT22;8303;53.446;9.988;2022-11-24T08:31:01;5.80;1.00
16388;DHT22;8303;53.446;9.988;2022-11-24T08:33:29;6.00;1.00
16388;DHT22;8303;53.446;9.988;2022-11-24T08:36:03;6.10;1.00
16388;DHT22;8303;53.446;9.988;2022-11-24T08:38:33;6.20;1.00
16388;DHT22;8303;53.446;9.988;2022-11-24T08:41:00;6.20;1.00
16388;DHT22;8303;53.446;9.988;2022-11-24T08:43:28;6.30;1.00
16388;DHT22;8303;53.446;9.988;2022-11-24T08:45:59;6.40;99.90
16388;DHT22;8303;53.446;9.988;2022-11-24T08:48:27;6.50;99.90
16388;DHT22;8303;53.446;9.988;2022-11-24T08:50:54;6.40;99.90
16388;DHT22;8303;53.446;9.988;2022-11-24T08:53:22;6.40;99.90
16388;DHT22;8303;53.446;9.988;2022-11-24T08:55:52;6.40;99.90
16388;DHT22;8303;53.446;9.988;2022-11-24T08:58:19;6.40;99.90
16388;DHT22;8303;53.446;9.988;2022-11-24T09:00:46;6.40;99.90
16388;DHT22;8303;53.446;9.988;2022-11-24T09:03:13;6.40;99.90
16388;DHT22;8303;53.446;9.988;2022-11-24T09:05:40;6.50;99.90
16388;DHT22;8303;53.446;9.988;2022-11-24T09:08:07;6.50;99.90
16388;DHT22;8303;53.446;9.988;2022-11-24T09:10:36;6.60;99.90
16388;DHT22;8303;53.446;9.988;2022-11-24T09:13:03;6.70;99.90
16388;DHT22;8303;53.446;9.988;2022-11-24T09:15:30;6.90;99.90
16388;DHT22;8303;53.446;9.988;2022-11-24T09:17:57;7.10;99.90
16388;DHT22;8303;53.446;9.988;2022-11-24T09:20:24;7.30;99.90
16388;DHT22;8303;53.446;9.988;2022-11-24T09:22:51;7.50;61.10
16388;DHT22;8303;53.446;9.988;2022-11-24T09:25:19;7.70;1.00
16388;DHT22;8303;53.446;9.988;2022-11-24T09:27:47;7.80;1.00
16388;DHT22;8303;53.446;9.988;2022-11-24T09:30:15;8.00;1.00
16388;DHT22;8303;53.446;9.988;2022-11-24T09:32:42;8.00;1.00
16388;DHT22;8303;53.446;9.988;2022-11-24T09:35:09;8.30;1.00
16388;DHT22;8303;53.446;9.988;2022-11-24T09:37:36;8.50;1.00
16388;DHT22;8303;53.446;9.988;2022-11-24T09:40:04;8.60;1.00
16388;DHT22;8303;53.446;9.988;2022-11-24T09:42:40;8.60;99.90
16388;DHT22;8303;53.446;9.988;2022-11-24T09:45:40;8.60;99.90
16388;DHT22;8303;53.446;9.988;2022-11-24T09:48:10;8.60;99.90
16388;DHT22;8303;53.446;9.988;2022-11-24T09:50:41;8.60;99.90
16388;DHT22;8303;53.446;9.988;2022-11-24T09:53:16;8.80;99.90
16388;DHT22;8303;53.446;9.988;2022-11-24T09:55:46;8.90;81.50
16388;DHT22;8303;53.446;9.988;2022-11-24T09:58:30;9.00;97.40
16388;DHT22;8303;53.446;9.988;2022-11-24T10:01:04;8.90;1.00
16388;DHT22;8303;53.446;9.988;2022-11-24T10:03:34;8.80;1.00
16388;DHT22;8303;53.446;9.988;2022-11-24T10:06:08;8.80;1.00
16388;DHT22;8303;53.446;9.988;2022-11-24T10:08:47;8.90;1.00
16388;DHT22;8303;53.446;9.988;2022-11-24T10:11:29;9.00;1.00
16388;DHT22;8303;53.446;9.988;2022-11-24T10:14:08;9.10;1.00
16388;DHT22;8303;53.446;9.988;2022-11-24T10:16:48;9.20;1.00
16388;DHT22;8303;53.446;9.988;2022-11-24T10:19:32;9.30;1.00
16388;DHT22;8303;53.446;9.988;2022-11-24T10:22:13;9.50;1.00
16388;DHT22;8303;53.446;9.988;2022-11-24T10:25:03;9.50;1.00
16388;DHT22;8303;53.446;9.988;2022-11-24T10:27:35;9.50;1.00
16388;DHT22;8303;53.446;9.988;2022-11-24T10:30:12;9.70;1.00
16388;DHT22;8303;53.446;9.988;2022-11-24T10:32:44;9.80;1.00
16388;DHT22;8303;53.446;9.988;2022-11-24T10:35:18;10.00;1.00
16388;DHT22;8303;53.446;9.988;2022-11-24T10:37:54;10.10;1.00
16388;DHT22;8303;53.446;9.988;2022-11-24T10:40:31;10.10;1.00
16388;DHT22;8303;53.446;9.988;2022-11-24T10:42:59;10.20;1.00
16388;DHT22;8303;53.446;9.988;2022-11-24T10:45:27;10.30;1.00
16388;DHT22;8303;53.446;9.988;2022-11-24T10:47:56;10.40;1.00
16388;DHT22;8303;53.446;9.988;2022-11-24T10:50:25;10.40;99.90
16388;DHT22;8303;53.446;9.988;2022-11-24T10:53:02;10.40;1.00
16388;DHT22;8303;53.446;9.988;2022-11-24T10:56:00;10.40;1.00
16388;DHT22;8303;53.446;9.988;2022-11-24T10:58:29;10.50;99.90
16388;DHT22;8303;53.446;9.988;2022-11-24T11:00:58;10.60;99.90
16388;DHT22;8303;53.446;9.988;2022-11-24T11:03:31;10.50;99.90
16388;DHT22;8303;53.446;9.988;2022-11-24T11:06:00;10.50;99.90
16388;DHT22;8303;53.446;9.988;2022-11-24T11:08:30;10.50;99.90
16388;DHT22;8303;53.446;9.988;2022-11-24T11:11:19;10.50;99.90
16388;DHT22;8303;53.446;9.988;2022-11-24T11:13:49;10.50;99.90
16388;DHT22;8303;53.446;9.988;2022-11-24T11:16:29;10.50;99.90
16388;DHT22;8303;53.446;9.988;2022-11-24T11:19:00;10.50;99.90
16388;DHT22;8303;53.446;9.988;2022-11-24T11:21:32;10.50;99.90
16388;DHT22;8303;53.446;9.988;2022-11-24T11:24:00;10.50;99.90
16388;DHT22;8303;53.446;9.988;2022-11-24T11:26:33;10.40;99.90
16388;DHT22;8303;53.446;9.988;2022-11-24T11:29:12;10.40;99.90
16388;DHT22;8303;53.446;9.988;2022-11-24T11:31:40;10.40;99.90
16388;DHT22;8303;53.446;9.988;2022-11-24T11:34:16;10.30;99.90
16388;DHT22;8303;53.446;9.988;2022-11-24T11:36:45;10.30;99.90
16388;DHT22;8303;53.446;9.988;2022-11-24T11:39:23;10.30;99.90
16388;DHT22;8303;53.446;9.988;2022-11-24T11:41:54;10.30;99.90
16388;DHT22;8303;53.446;9.988;2022-11-24T11:44:30;10.40;99.90
16388;DHT22;8303;53.446;9.988;2022-11-24T11:46:58;10.40;99.90
16388;DHT22;8303;53.446;9.988;2022-11-24T11:49:29;10.40;99.90
16388;DHT22;8303;53.446;9.988;2022-11-24T11:52:22;10.60;99.90
16388;DHT22;8303;53.446;9.988;2022-11-24T11:55:16;10.60;99.90
16388;DHT22;8303;53.446;9.988;2022-11-24T11:57:52;10.60;99.90
16388;DHT22;8303;53.446;9.988;2022-11-24T12:00:21;10.60;99.90
16388;DHT22;8303;53.446;9.988;2022-11-24T12:03:10;10.60;99.90
16388;DHT22;8303;53.446;9.988;2022-11-24T12:05:48;10.50;99.90
16388;DHT22;8303;53.446;9.988;2022-11-24T12:08:27;10.50;99.90
16388;DHT22;8303;53.446;9.988;2022-11-24T12:11:04;10.50;99.90
16388;DHT22;8303;53.446;9.988;2022-11-24T12:13:52;10.60;99.90
16388;DHT22;8303;53.446;9.988;2022-11-24T12:16:31;10.70;99.90
16388;DHT22;8303;53.446;9.988;2022-11-24T12:22:04;10.80;99.90
16388;DHT22;8303;53.446;9.988;2022-11-24T12:24:39;10.80;99.90
16388;DHT22;8303;53.446;9.988;2022-11-24T12:27:17;10.70;99.90
16388;DHT22;8303;53.446;9.988;2022-11-24T12:30:08;10.50;99.90
16388;DHT22;8303;53.446;9.988;2022-11-24T12:32:56;10.40;99.90
16388;DHT22;8303;53.446;9.988;2022-11-24T12:35:30;10.30;99.90
16388;DHT22;8303;53.446;9.988;2022-11-24T12:38:09;10.30;99.90
16388;DHT22;8303;53.446;9.988;2022-11-24T12:40:54;10.30;99.90
16388;DHT22;8303;53.446;9.988;2022-11-24T12:43:29;10.30;99.90
16388;DHT22;8303;53.446;9.988;2022-11-24T12:46:03;10.40;99.90
16388;DHT22;8303;53.446;9.988;2022-11-24T12:48:41;10.30;99.90
16388;DHT22;8303;53.446;9.988;2022-11-24T12:51:14;10.30;99.90
16388;DHT22;8303;53.446;9.988;2022-11-24T12:53:45;10.20;99.90
16388;DHT22;8303;53.446;9.988;2022-11-24T12:56:14;10.30;99.90
16388;DHT22;8303;53.446;9.988;2022-11-24T12:58:47;10.30;99.90
16388;DHT22;8303;53.446;9.988;2022-11-24T13:01:24;10.30;99.90
16388;DHT22;8303;53.446;9.988;2022-11-24T13:04:06;10.30;99.90
16388;DHT22;8303;53.446;9.988;2022-11-24T13:06:43;10.20;99.90
16388;DHT22;8303;53.446;9.988;2022-11-24T13:09:13;10.30;99.90
16388;DHT22;8303;53.446;9.988;2022-11-24T13:11:41;10.40;99.90
16388;DHT22;8303;53.446;9.988;2022-11-24T13:14:19;10.50;99.90
16388;DHT22;8303;53.446;9.988;2022-11-24T13:16:51;10.50;99.90
16388;DHT22;8303;53.446;9.988;2022-11-24T13:19:20;10.60;99.90
16388;DHT22;8303;53.446;9.988;2022-11-24T13:21:58;10.60;99.90
16388;DHT22;8303;53.446;9.988;2022-11-24T13:24:28;10.70;99.90
16388;DHT22;8303;53.446;9.988;2022-11-24T13:29:59;10.70;99.90
16388;DHT22;8303;53.446;9.988;2022-11-24T13:35:36;10.60;99.90
16388;DHT22;8303;53.446;9.988;2022-11-24T13:38:37;10.70;99.90
16388;DHT22;8303;53.446;9.988;2022-11-24T13:41:07;10.70;99.90
16388;DHT22;8303;53.446;9.988;2022-11-24T13:43:35;10.70;99.90
16388;DHT22;8303;53.446;9.988;2022-11-24T13:46:02;10.70;99.90
16388;DHT22;8303;53.446;9.988;2022-11-24T13:48:59;10.70;99.90
16388;DHT22;8303;53.446;9.988;2022-11-24T13:51:26;10.70;99.90
16388;DHT22;8303;53.446;9.988;2022-11-24T13:53:55;10.70;99.90
16388;DHT22;8303;53.446;9.988;2022-11-24T13:56:25;10.60;99.90
16388;DHT22;8303;53.446;9.988;2022-11-24T13:58:55;10.60;99.90
16388;DHT22;8303;53.446;9.988;2022-11-24T14:01:24;10.50;99.90
16388;DHT22;8303;53.446;9.988;2022-11-24T14:04:20;10.40;99.90
16388;DHT22;8303;53.446;9.988;2022-11-24T14:06:54;10.40;99.90
16388;DHT22;8303;53.446;9.988;2022-11-24T14:09:29;10.40;99.90
16388;DHT22;8303;53.446;9.988;2022-11-24T14:12:03;10.40;99.90
16388;DHT22;8303;53.446;9.988;2022-11-24T14:14:30;10.40;99.90
16388;DHT22;8303;53.446;9.988;2022-11-24T14:17:14;10.50;99.90
16388;DHT22;8303;53.446;9.988;2022-11-24T14:19:43;10.60;99.90
16388;DHT22;8303;53.446;9.988;2022-11-24T14:22:15;10.40;99.90
16388;DHT22;8303;53.446;9.988;2022-11-24T14:24:44;10.30;99.90
16388;DHT22;8303;53.446;9.988;2022-11-24T14:27:15;10.20;99.90
16388;DHT22;8303;53.446;9.988;2022-11-24T14:29:53;10.00;99.90
16388;DHT22;8303;53.446;9.988;2022-11-24T14:32:20;9.80;99.90
16388;DHT22;8303;53.446;9.988;2022-11-24T14:34:47;9.60;99.90
16388;DHT22;8303;53.446;9.988;2022-11-24T14:37:16;9.50;99.90
16388;DHT22;8303;53.446;9.988;2022-11-24T14:39:43;9.40;1.00
16388;DHT22;8303;53.446;9.988;2022-11-24T14:42:19;9.20;1.00
16388;DHT22;8303;53.446;9.988;2022-11-24T14:44:49;9.10;1.00
16388;DHT22;8303;53.446;9.988;2022-11-24T14:47:21;9.00;1.00
16388;DHT22;8303;53.446;9.988;2022-11-24T14:49:49;8.90;1.00
16388;DHT22;8303;53.446;9.988;2022-11-24T14:52:20;8.80;1.00
16388;DHT22;8303;53.446;9.988;2022-11-24T14:54:48;8.80;1.00
16388;DHT22;8303;53.446;9.988;2022-11-24T14:57:25;8.80;1.00
16388;DHT22;8303;53.446;9.988;2022-11-24T15:00:14;8.70;1.00
16388;DHT22;8303;53.446;9.988;2022-11-24T15:02:43;8.60;1.00
16388;DHT22;8303;53.446;9.988;2022-11-24T15:05:13;8.40;1.00
16388;DHT22;8303;53.446;9.988;2022-11-24T15:07:41;8.30;1.00
16388;DHT22;8303;53.446;9.988;2022-11-24T15:10:21;8.20;1.00
16388;DHT22;8303;53.446;9.988;2022-11-24T15:12:53;8.20;1.00
16388;DHT22;8303;53.446;9.988;2022-11-24T15:15:23;8.20;1.00
16388;DHT22;8303;53.446;9.988;2022-11-24T15:17:54;8.10;1.00
16388;DHT22;8303;53.446;9.988;2022-11-24T15:20:25;8.00;1.00
16388;DHT22;8303;53.446;9.988;2022-11-24T15:23:22;7.90;1.00
16388;DHT22;8303;53.446;9.988;2022-11-24T15:25:49;7.90;1.00
16388;DHT22;8303;53.446;9.988;2022-11-24T15:28:18;7.90;1.00
16388;DHT22;8303;53.446;9.988;2022-11-24T15:30:50;7.90;1.00
16388;DHT22;8303;53.446;9.988;2022-11-24T15:33:18;7.90;1.00
16388;DHT22;8303;53.446;9.988;2022-11-24T15:35:46;7.80;1.00
16388;DHT22;8303;53.446;9.988;2022-11-24T15:38:13;7.70;1.00
16388;DHT22;8303;53.446;9.988;2022-11-24T15:40:43;7.70;1.00
16388;DHT22;8303;53.446;9.988;2022-11-24T15:43:20;7.70;31.00
16388;DHT22;8303;53.446;9.988;2022-11-24T15:45:48;7.70;94.90
16388;DHT22;8303;53.446;9.988;2022-11-24T15:48:15;7.70;85.90
16388;DHT22;8303;53.446;9.988;2022-11-24T15:50:42;7.70;95.50
16388;DHT22;8303;53.446;9.988;2022-11-24T15:53:15;7.80;99.90
16388;DHT22;8303;53.446;9.988;2022-11-24T15:55:44;7.70;99.90
16388;DHT22;8303;53.446;9.988;2022-11-24T15:58:12;7.80;99.90
16388;DHT22;8303;53.446;9.988;2022-11-24T16:00:42;7.80;99.90
16388;DHT22;8303;53.446;9.988;2022-11-24T16:03:09;7.90;99.90
16388;DHT22;8303;53.446;9.988;2022-11-24T16:05:36;7.90;99.90
16388;DHT22;8303;53.446;9.988;2022-11-24T16:08:04;7.90;99.90
16388;DHT22;8303;53.446;9.988;2022-11-24T16:10:34;7.90;99.90
16388;DHT22;8303;53.446;9.988;2022-11-24T16:13:02;7.90;99.90
16388;DHT22;8303;53.446;9.988;2022-11-24T16:15:29;7.80;99.90
16388;DHT22;8303;53.446;9.988;2022-11-24T16:17:57;7.70;99.90
16388;DHT22;8303;53.446;9.988;2022-11-24T16:20:24;7.60;96.20
16388;DHT22;8303;53.446;9.988;2022-11-24T16:22:51;7.50;99.90
16388;DHT22;8303;53.446;9.988;2022-11-24T16:25:20;7.40;99.90
16388;DHT22;8303;53.446;9.988;2022-11-24T16:27:47;7.20;99.90
16388;DHT22;8303;53.446;9.988;2022-11-24T16:30:14;7.10;99.90
16388;DHT22;8303;53.446;9.988;2022-11-24T16:32:41;7.00;99.90
16388;DHT22;8303;53.446;9.988;2022-11-24T16:35:10;6.90;99.90
16388;DHT22;8303;53.446;9.988;2022-11-24T16:37:37;6.70;99.90
16388;DHT22;8303;53.446;9.988;2022-11-24T16:40:08;6.70;99.90
16388;DHT22;8303;53.446;9.988;2022-11-24T16:42:39;6.60;99.90
16388;DHT22;8303;53.446;9.988;2022-11-24T16:45:08;6.50;99.90
16388;DHT22;8303;53.446;9.988;2022-11-24T16:47:38;6.40;99.90
16388;DHT22;8303;53.446;9.988;2022-11-24T16:50:07;6.30;99.90
16388;DHT22;8303;53.446;9.988;2022-11-24T16:52:35;6.20;99.90
16388;DHT22;8303;53.446;9.988;2022-11-24T16:55:03;6.10;99.90
16388;DHT22;8303;53.446;9.988;2022-11-24T16:57:30;6.10;1.00
16388;DHT22;8303;53.446;9.988;2022-11-24T16:59:57;6.10;1.00
16388;DHT22;8303;53.446;9.988;2022-11-24T17:02:24;6.20;1.00
16388;DHT22;8303;53.446;9.988;2022-11-24T17:04:51;6.20;1.00
16388;DHT22;8303;53.446;9.988;2022-11-24T17:07:18;6.10;1.00
16388;DHT22;8303;53.446;9.988;2022-11-24T17:09:47;6.00;1.00
16388;DHT22;8303;53.446;9.988;2022-11-24T17:12:14;5.90;1.00
16388;DHT22;8303;53.446;9.988;2022-11-24T17:14:41;5.90;1.00
16388;DHT22;8303;53.446;9.988;2022-11-24T17:17:08;5.90;1.00
16388;DHT22;8303;53.446;9.988;2022-11-24T17:19:35;5.90;1.00
16388;DHT22;8303;53.446;9.988;2022-11-24T17:22:02;5.90;1.00
16388;DHT22;8303;53.446;9.988;2022-11-24T17:24:29;5.90;1.00
16388;DHT22;8303;53.446;9.988;2022-11-24T17:26:57;5.90;1.00
16388;DHT22;8303;53.446;9.988;2022-11-24T17:29:24;5.80;1.00
16388;DHT22;8303;53.446;9.988;2022-11-24T17:31:52;5.70;1.00
16388;DHT22;8303;53.446;9.988;2022-11-24T17:34:19;5.70;1.00
16388;DHT22;8303;53.446;9.988;2022-11-24T17:36:46;5.70;1.00
16388;DHT22;8303;53.446;9.988;2022-11-24T17:39:13;5.70;1.00
16388;DHT22;8303;53.446;9.988;2022-11-24T17:41:40;5.60;1.00
16388;DHT22;8303;53.446;9.988;2022-11-24T17:44:08;5.60;1.00
16388;DHT22;8303;53.446;9.988;2022-11-24T17:46:37;5.60;1.00
16388;DHT22;8303;53.446;9.988;2022-11-24T17:49:04;5.60;1.00
16388;DHT22;8303;53.446;9.988;2022-11-24T17:51:32;5.60;98.10
16388;DHT22;8303;53.446;9.988;2022-11-24T17:53:59;5.50;90.60
16388;DHT22;8303;53.446;9.988;2022-11-24T17:56:27;5.50;70.60
16388;DHT22;8303;53.446;9.988;2022-11-24T17:58:55;5.50;99.90
16388;DHT22;8303;53.446;9.988;2022-11-24T18:01:24;5.50;99.90
16388;DHT22;8303;53.446;9.988;2022-11-24T18:03:53;5.50;99.90
16388;DHT22;8303;53.446;9.988;2022-11-24T18:06:20;5.50;99.90
16388;DHT22;8303;53.446;9.988;2022-11-24T18:08:50;5.40;99.90
16388;DHT22;8303;53.446;9.988;2022-11-24T18:11:19;5.40;99.90
16388;DHT22;8303;53.446;9.988;2022-11-24T18:13:47;5.30;99.90
16388;DHT22;8303;53.446;9.988;2022-11-24T18:16:14;5.30;99.90
16388;DHT22;8303;53.446;9.988;2022-11-24T18:18:42;5.30;99.90
16388;DHT22;8303;53.446;9.988;2022-11-24T18:21:12;5.30;99.90
16388;DHT22;8303;53.446;9.988;2022-11-24T18:23:40;5.30;99.90
16388;DHT22;8303;53.446;9.988;2022-11-24T18:26:10;5.30;99.90
16388;DHT22;8303;53.446;9.988;2022-11-24T18:28:37;5.20;99.90
16388;DHT22;8303;53.446;9.988;2022-11-24T18:31:06;5.30;99.90
16388;DHT22;8303;53.446;9.988;2022-11-24T18:33:35;5.30;99.90
16388;DHT22;8303;53.446;9.988;2022-11-24T18:36:06;5.20;99.90
16388;DHT22;8303;53.446;9.988;2022-11-24T18:38:34;5.20;99.90
16388;DHT22;8303;53.446;9.988;2022-11-24T18:41:02;5.20;99.90
16388;DHT22;8303;53.446;9.988;2022-11-24T18:43:29;5.20;99.90
16388;DHT22;8303;53.446;9.988;2022-11-24T18:45:56;5.20;99.90
16388;DHT22;8303;53.446;9.988;2022-11-24T18:48:24;5.10;99.90
16388;DHT22;8303;53.446;9.988;2022-11-24T18:50:52;5.00;99.90
16388;DHT22;8303;53.446;9.988;2022-11-24T18:53:22;5.10;99.90
16388;DHT22;8303;53.446;9.988;2022-11-24T18:55:54;5.20;99.90
16388;DHT22;8303;53.446;9.988;2022-11-24T18:58:21;5.10;99.90
16388;DHT22;8303;53.446;9.988;2022-11-24T19:00:49;5.10;99.90
16388;DHT22;8303;53.446;9.988;2022-11-24T19:03:16;5.20;99.90
16388;DHT22;8303;53.446;9.988;2022-11-24T19:05:43;5.20;99.90
16388;DHT22;8303;53.446;9.988;2022-11-24T19:08:10;5.20;99.90
16388;DHT22;8303;53.446;9.988;2022-11-24T19:10:38;5.10;99.90
16388;DHT22;8303;53.446;9.988;2022-11-24T19:13:05;5.10;99.90
16388;DHT22;8303;53.446;9.988;2022-11-24T19:15:33;5.10;99.90
16388;DHT22;8303;53.446;9.988;2022-11-24T19:18:00;5.20;99.90
16388;DHT22;8303;53.446;9.988;2022-11-24T19:20:27;5.20;99.90
16388;DHT22;8303;53.446;9.988;2022-11-24T19:22:54;5.20;99.90
16388;DHT22;8303;53.446;9.988;2022-11-24T19:25:21;5.20;99.90
16388;DHT22;8303;53.446;9.988;2022-11-24T19:27:49;5.20;99.90
16388;DHT22;8303;53.446;9.988;2022-11-24T19:30:16;5.30;99.90
16388;DHT22;8303;53.446;9.988;2022-11-24T19:32:44;5.30;1.00
16388;DHT22;8303;53.446;9.988;2022-11-24T19:35:11;5.30;1.00
16388;DHT22;8303;53.446;9.988;2022-11-24T19:37:37;5.30;1.00
16388;DHT22;8303;53.446;9.988;2022-11-24T19:40:06;5.30;99.90
16388;DHT22;8303;53.446;9.988;2022-11-24T19:42:33;5.40;1.00
16388;DHT22;8303;53.446;9.988;2022-11-24T19:45:01;5.30;1.00
16388;DHT22;8303;53.446;9.988;2022-11-24T19:47:28;5.20;99.90
16388;DHT22;8303;53.446;9.988;2022-11-24T19:49:55;5.20;99.90
16388;DHT22;8303;53.446;9.988;2022-11-24T19:52:22;5.10;99.90
16388;DHT22;8303;53.446;9.988;2022-11-24T19:54:49;5.10;99.90
16388;DHT22;8303;53.446;9.988;2022-11-24T19:57:16;4.90;99.90
16388;DHT22;8303;53.446;9.988;2022-11-24T19:59:43;4.80;99.90
16388;DHT22;8303;53.446;9.988;2022-11-24T20:02:11;4.70;99.90
16388;DHT22;8303;53.446;9.988;2022-11-24T20:04:38;4.70;99.90
16388;DHT22;8303;53.446;9.988;2022-11-24T20:07:07;4.80;99.90
16388;DHT22;8303;53.446;9.988;2022-11-24T20:09:34;4.90;1.00
16388;DHT22;8303;53.446;9.988;2022-11-24T20:12:01;4.90;1.00
16388;DHT22;8303;53.446;9.988;2022-11-24T20:14:28;4.90;1.00
16388;DHT22;8303;53.446;9.988;2022-11-24T20:16:55;4.90;1.00
16388;DHT22;8303;53.446;9.988;2022-11-24T20:19:23;4.90;1.00
16388;DHT22;8303;53.446;9.988;2022-11-24T20:21:51;4.90;1.00
16388;DHT22;8303;53.446;9.988;2022-11-24T20:24:20;4.90;1.00
16388;DHT22;8303;53.446;9.988;2022-11-24T20:26:50;4.80;1.00
16388;DHT22;8303;53.446;9.988;2022-11-24T20:29:18;4.80;1.00
16388;DHT22;8303;53.446;9.988;2022-11-24T20:31:47;4.60;99.90
16388;DHT22;8303;53.446;9.988;2022-11-24T20:34:15;4.40;99.90
16388;DHT22;8303;53.446;9.988;2022-11-24T20:36:45;4.30;99.90
16388;DHT22;8303;53.446;9.988;2022-11-24T20:39:14;4.30;99.90
16388;DHT22;8303;53.446;9.988;2022-11-24T20:41:41;4.20;99.90
16388;DHT22;8303;53.446;9.988;2022-11-24T20:44:15;4.10;99.90
16388;DHT22;8303;53.446;9.988;2022-11-24T20:46:43;4.10;1.00
16388;DHT22;8303;53.446;9.988;2022-11-24T20:49:13;4.00;99.90
16388;DHT22;8303;53.446;9.988;2022-11-24T20:51:42;3.90;99.90
16388;DHT22;8303;53.446;9.988;2022-11-24T20:54:12;3.80;99.90
16388;DHT22;8303;53.446;9.988;2022-11-24T20:56:41;3.90;99.90
16388;DHT22;8303;53.446;9.988;2022-11-24T20:59:10;3.80;99.90
16388;DHT22;8303;53.446;9.988;2022-11-24T21:01:39;3.80;1.00
16388;DHT22;8303;53.446;9.988;2022-11-24T21:04:08;3.80;1.00
16388;DHT22;8303;53.446;9.988;2022-11-24T21:06:36;3.70;1.00
16388;DHT22;8303;53.446;9.988;2022-11-24T21:09:04;3.70;1.00
16388;DHT22;8303;53.446;9.988;2022-11-24T21:11:32;3.60;1.00
16388;DHT22;8303;53.446;9.988;2022-11-24T21:13:59;3.60;1.00
16388;DHT22;8303;53.446;9.988;2022-11-24T21:16:28;3.50;99.90
16388;DHT22;8303;53.446;9.988;2022-11-24T21:18:57;3.50;99.90
16388;DHT22;8303;53.446;9.988;2022-11-24T21:21:28;3.40;99.90
16388;DHT22;8303;53.446;9.988;2022-11-24T21:23:58;3.40;99.90
16388;DHT22;8303;53.446;9.988;2022-11-24T21:26:27;3.40;99.90
16388;DHT22;8303;53.446;9.988;2022-11-24T21:28:54;3.30;99.90
